createdAt,value
2016-09-24T00:00:12.434Z,0
2016-09-24T00:01:13.347Z,0
2016-09-24T00:02:12.535Z,0
2016-09-24T00:03:11.796Z,0
2016-09-24T00:04:12.333Z,0
2016-09-24T00:05:11.498Z,0
2016-09-24T00:06:12.720Z,0
2016-09-24T00:07:12.408Z,0
2016-09-24T00:08:12.009Z,0
2016-09-24T00:09:11.789Z,0
2016-09-24T00:10:11.793Z,0
2016-09-24T00:11:12.602Z,0
2016-09-24T00:12:13.165Z,0
2016-09-24T00:13:12.350Z,0
2016-09-24T00:14:12.053Z,0
2016-09-24T00:15:12.002Z,0
2016-09-24T00:16:13.197Z,0
2016-09-24T00:17:13.118Z,0
2016-09-24T00:18:12.899Z,0
2016-09-24T00:19:12.151Z,0
2016-09-24T00:20:11.913Z,0
2016-09-24T00:21:12.267Z,0
2016-09-24T00:22:11.651Z,0
2016-09-24T00:23:12.005Z,0
2016-09-24T00:24:12.840Z,0
2016-09-24T00:25:12.793Z,0
2016-09-24T00:26:12.691Z,0
2016-09-24T00:27:11.989Z,0
2016-09-24T00:28:11.302Z,0
2016-09-24T00:29:12.248Z,0
2016-09-24T00:30:11.275Z,0
2016-09-24T00:31:12.018Z,0
2016-09-24T00:32:11.865Z,0
2016-09-24T00:33:14.253Z,0
2016-09-24T00:34:12.337Z,0
2016-09-24T00:35:12.350Z,0
2016-09-24T00:36:12.183Z,0
2016-09-24T00:37:12.131Z,0
2016-09-24T00:38:12.720Z,0
2016-09-24T00:39:12.557Z,0
2016-09-24T00:40:12.444Z,0
2016-09-24T00:41:12.195Z,0
2016-09-24T00:42:13.603Z,0
2016-09-24T00:43:11.492Z,0
2016-09-24T00:44:11.712Z,0
2016-09-24T00:45:14.159Z,0
2016-09-24T00:46:11.878Z,0
2016-09-24T00:47:11.976Z,0
2016-09-24T00:48:13.546Z,0
2016-09-24T00:49:12.883Z,0
2016-09-24T00:50:12.988Z,0
2016-09-24T00:51:12.464Z,0
2016-09-24T00:52:13.176Z,0
2016-09-24T00:53:12.525Z,0
2016-09-24T00:54:12.707Z,0
2016-09-24T00:55:11.742Z,0
2016-09-24T00:56:13.429Z,0
2016-09-24T00:57:12.383Z,0
2016-09-24T00:58:12.826Z,0
2016-09-24T00:59:13.031Z,0
2016-09-24T01:00:12.730Z,0
2016-09-24T01:01:13.137Z,0
2016-09-24T01:02:12.531Z,0
2016-09-24T01:03:12.550Z,0
2016-09-24T01:04:13.492Z,0
2016-09-24T01:05:12.389Z,0
2016-09-24T01:06:13.203Z,0
2016-09-24T01:07:12.529Z,0
2016-09-24T01:08:13.021Z,0
2016-09-24T01:09:12.485Z,0
2016-09-24T01:10:13.215Z,0
2016-09-24T01:11:12.633Z,0
2016-09-24T01:12:13.376Z,0
2016-09-24T01:13:13.388Z,0
2016-09-24T01:14:13.224Z,0
2016-09-24T01:15:12.354Z,0
2016-09-24T01:16:13.140Z,0
2016-09-24T01:17:12.882Z,0
2016-09-24T01:18:13.377Z,0
2016-09-24T01:19:15.220Z,0
2016-09-24T01:20:13.125Z,0
2016-09-24T01:21:14.532Z,0
2016-09-24T01:22:12.624Z,0
2016-09-24T01:23:13.165Z,0
2016-09-24T01:24:13.633Z,0
2016-09-24T01:25:14.233Z,0
2016-09-24T01:26:12.684Z,0
2016-09-24T01:27:12.697Z,0
2016-09-24T01:28:13.129Z,0
2016-09-24T01:29:13.485Z,0
2016-09-24T01:30:13.981Z,0
2016-09-24T01:31:14.247Z,0
2016-09-24T01:32:13.840Z,0
2016-09-24T01:33:13.339Z,0
2016-09-24T01:34:13.053Z,0
2016-09-24T01:35:14.211Z,0
2016-09-24T01:36:14.314Z,0
2016-09-24T01:37:14.587Z,0
2016-09-24T01:38:14.845Z,0
2016-09-24T01:39:14.280Z,0
2016-09-24T01:40:13.418Z,0
2016-09-24T01:41:12.846Z,0
2016-09-24T01:42:13.204Z,0
2016-09-24T01:43:15.011Z,0
2016-09-24T01:44:14.318Z,0
2016-09-24T01:45:14.209Z,0
2016-09-24T01:46:14.880Z,0
2016-09-24T01:47:13.509Z,0
2016-09-24T01:48:13.526Z,0
2016-09-24T01:49:14.197Z,0
2016-09-24T01:50:13.155Z,0
2016-09-24T01:51:13.846Z,0
2016-09-24T01:52:14.262Z,0
2016-09-24T01:53:12.486Z,0
2016-09-24T01:54:13.085Z,0
2016-09-24T01:55:14.371Z,0
2016-09-24T01:56:13.130Z,0
2016-09-24T01:57:13.982Z,0
2016-09-24T01:58:13.932Z,0
2016-09-24T01:59:14.383Z,0
2016-09-24T02:00:14.285Z,0
2016-09-24T02:01:14.865Z,0
2016-09-24T02:02:13.383Z,0
2016-09-24T02:03:14.998Z,0
2016-09-24T02:04:13.907Z,0
2016-09-24T02:05:14.698Z,0
2016-09-24T02:06:15.215Z,0
2016-09-24T02:07:14.335Z,0
2016-09-24T02:08:14.044Z,0
2016-09-24T02:09:14.840Z,0
2016-09-24T02:10:14.307Z,0
2016-09-24T02:11:13.507Z,0
2016-09-24T02:12:14.925Z,0
2016-09-24T02:13:14.082Z,0
2016-09-24T02:14:14.263Z,0
2016-09-24T02:15:14.520Z,0
2016-09-24T02:16:14.702Z,0
2016-09-24T02:17:14.955Z,0
2016-09-24T02:18:13.679Z,0
2016-09-24T02:19:15.034Z,0
2016-09-24T02:20:14.698Z,0
2016-09-24T02:21:14.688Z,0
2016-09-24T02:22:14.490Z,0
2016-09-24T02:23:15.147Z,0
2016-09-24T02:24:14.446Z,0
2016-09-24T02:25:15.685Z,0
2016-09-24T02:26:16.785Z,0
2016-09-24T02:27:14.379Z,0
2016-09-24T02:28:15.195Z,0
2016-09-24T02:29:15.463Z,0
2016-09-24T02:30:14.894Z,0
2016-09-24T02:31:15.810Z,0
2016-09-24T02:32:14.752Z,0
2016-09-24T02:33:14.352Z,0
2016-09-24T02:34:16.391Z,0
2016-09-24T02:35:15.232Z,0
2016-09-24T02:36:14.592Z,0
2016-09-24T02:37:15.926Z,0
2016-09-24T02:38:14.625Z,0
2016-09-24T02:39:16.010Z,0
2016-09-24T02:40:14.885Z,0
2016-09-24T02:41:14.963Z,0
2016-09-24T02:42:14.368Z,0
2016-09-24T02:43:14.999Z,0
2016-09-24T02:44:14.915Z,0
2016-09-24T02:45:14.864Z,0
2016-09-24T02:46:14.512Z,0
2016-09-24T02:47:14.313Z,0
2016-09-24T02:48:14.351Z,0
2016-09-24T02:49:15.590Z,0
2016-09-24T02:50:15.395Z,0
2016-09-24T02:51:14.732Z,0
2016-09-24T02:52:15.900Z,0
2016-09-24T02:53:17.114Z,0
2016-09-24T02:54:14.523Z,0
2016-09-24T02:55:15.716Z,0
2016-09-24T02:56:15.445Z,0
2016-09-24T02:57:15.451Z,0
2016-09-24T02:58:14.955Z,0
2016-09-24T02:59:14.854Z,0
2016-09-24T03:00:16.481Z,0
2016-09-24T03:01:16.013Z,0
2016-09-24T03:02:14.955Z,0
2016-09-24T03:03:15.013Z,0
2016-09-24T03:04:17.326Z,0
2016-09-24T03:05:15.409Z,0
2016-09-24T03:06:15.331Z,0
2016-09-24T03:07:15.778Z,0
2016-09-24T03:08:15.661Z,0
2016-09-24T03:09:14.621Z,0
2016-09-24T03:10:14.607Z,0
2016-09-24T03:11:14.631Z,0
2016-09-24T03:12:16.138Z,0
2016-09-24T03:13:15.766Z,0
2016-09-24T03:14:15.028Z,0
2016-09-24T03:15:16.613Z,0
2016-09-24T03:16:16.064Z,0
2016-09-24T03:17:15.496Z,0
2016-09-24T03:18:15.720Z,0
2016-09-24T03:19:14.542Z,0
2016-09-24T03:20:15.776Z,0
2016-09-24T03:21:15.357Z,0
2016-09-24T03:22:15.735Z,0
2016-09-24T03:23:16.060Z,0
2016-09-24T03:24:15.595Z,0
2016-09-24T03:25:15.365Z,0
2016-09-24T03:26:16.544Z,0
2016-09-24T03:27:15.384Z,0
2016-09-24T03:28:16.214Z,0
2016-09-24T03:29:16.284Z,0
2016-09-24T03:30:17.427Z,0
2016-09-24T03:31:15.184Z,0
2016-09-24T03:32:15.409Z,0
2016-09-24T03:33:16.014Z,0
2016-09-24T03:34:16.171Z,0
2016-09-24T03:35:15.665Z,0
2016-09-24T03:36:15.880Z,0
2016-09-24T03:37:16.535Z,0
2016-09-24T03:38:15.684Z,0
2016-09-24T03:39:15.595Z,0
2016-09-24T03:40:15.899Z,0
2016-09-24T03:41:15.338Z,0
2016-09-24T03:42:16.718Z,0
2016-09-24T03:43:15.631Z,0
2016-09-24T03:44:15.577Z,0
2016-09-24T03:45:15.576Z,0
2016-09-24T03:46:16.648Z,0
2016-09-24T03:47:15.933Z,0
2016-09-24T03:48:16.725Z,0
2016-09-24T03:49:16.350Z,0
2016-09-24T03:50:17.197Z,0
2016-09-24T03:51:16.963Z,0
2016-09-24T03:52:15.856Z,0
2016-09-24T03:53:15.748Z,0
2016-09-24T03:54:16.620Z,0
2016-09-24T03:55:16.017Z,0
2016-09-24T03:56:16.002Z,0
2016-09-24T03:57:16.885Z,0
2016-09-24T03:58:16.551Z,0
2016-09-24T03:59:16.683Z,0
2016-09-24T04:00:17.221Z,0
2016-09-24T04:01:17.382Z,0
2016-09-24T04:02:17.304Z,0
2016-09-24T04:03:16.789Z,0
2016-09-24T04:04:16.430Z,0
2016-09-24T04:05:16.865Z,0
2016-09-24T04:06:16.993Z,0
2016-09-24T04:07:15.916Z,0
2016-09-24T04:08:16.761Z,0
2016-09-24T04:09:18.360Z,0
2016-09-24T04:10:17.339Z,0
2016-09-24T04:11:16.652Z,0
2016-09-24T04:12:17.356Z,0
2016-09-24T04:13:17.431Z,0
2016-09-24T04:14:16.279Z,0
2016-09-24T04:15:16.007Z,0
2016-09-24T04:16:16.757Z,0
2016-09-24T04:17:17.457Z,0
2016-09-24T04:18:17.538Z,0
2016-09-24T04:19:16.741Z,0
2016-09-24T04:20:16.017Z,0
2016-09-24T04:21:16.010Z,0
2016-09-24T04:22:17.385Z,0
2016-09-24T04:23:17.577Z,0
2016-09-24T04:24:16.969Z,0
2016-09-24T04:25:15.912Z,0
2016-09-24T04:26:16.741Z,0
2016-09-24T04:27:16.931Z,0
2016-09-24T04:28:17.576Z,0
2016-09-24T04:29:17.151Z,0
2016-09-24T04:30:16.690Z,0
2016-09-24T04:31:16.913Z,0
2016-09-24T04:32:16.815Z,0
2016-09-24T04:33:16.859Z,0
2016-09-24T04:34:17.583Z,0
2016-09-24T04:35:16.684Z,0
2016-09-24T04:36:16.679Z,0
2016-09-24T04:37:17.651Z,0
2016-09-24T04:38:17.073Z,0
2016-09-24T04:39:17.054Z,0
2016-09-24T04:40:16.941Z,0
2016-09-24T04:41:15.913Z,4
2016-09-24T04:42:15.478Z,4
2016-09-24T04:43:17.370Z,0
2016-09-24T04:44:17.906Z,4
2016-09-24T04:45:17.687Z,4
2016-09-24T04:46:18.536Z,8
2016-09-24T04:47:18.245Z,4
2016-09-24T04:48:16.533Z,8
2016-09-24T04:49:18.316Z,8
2016-09-24T04:50:16.857Z,12
2016-09-24T04:51:16.898Z,12
2016-09-24T04:52:18.681Z,12
2016-09-24T04:53:17.484Z,16
2016-09-24T04:54:17.072Z,20
2016-09-24T04:55:16.986Z,24
2016-09-24T04:56:17.739Z,32
2016-09-24T04:57:17.781Z,36
2016-09-24T04:58:17.378Z,44
2016-09-24T04:59:17.186Z,48
2016-09-24T05:00:17.586Z,56
2016-09-24T05:01:17.916Z,64
2016-09-24T05:02:17.175Z,72
2016-09-24T05:03:17.483Z,80
2016-09-24T05:04:17.512Z,92
2016-09-24T05:05:18.153Z,100
2016-09-24T05:06:17.786Z,112
2016-09-24T05:07:17.889Z,128
2016-09-24T05:08:18.050Z,148
2016-09-24T05:09:17.199Z,164
2016-09-24T05:10:18.103Z,184
2016-09-24T05:11:17.433Z,192
2016-09-24T05:12:17.582Z,204
2016-09-24T05:13:17.500Z,212
2016-09-24T05:14:17.664Z,232
2016-09-24T05:15:18.245Z,260
2016-09-24T05:16:18.261Z,284
2016-09-24T05:17:17.732Z,312
2016-09-24T05:18:17.740Z,356
2016-09-24T05:19:18.135Z,404
2016-09-24T05:20:17.965Z,448
2016-09-24T05:21:18.324Z,480
2016-09-24T05:22:17.662Z,500
2016-09-24T05:23:17.726Z,516
2016-09-24T05:24:19.050Z,552
2016-09-24T05:25:17.078Z,596
2016-09-24T05:26:19.043Z,656
2016-09-24T05:27:19.540Z,720
2016-09-24T05:28:17.398Z,752
2016-09-24T05:29:17.030Z,800
2016-09-24T05:30:17.419Z,840
2016-09-24T05:31:18.088Z,892
2016-09-24T05:32:18.812Z,968
2016-09-24T05:33:18.644Z,1044
2016-09-24T05:34:18.425Z,1144
2016-09-24T05:35:18.335Z,1240
2016-09-24T05:36:17.538Z,1328
2016-09-24T05:37:17.706Z,1376
2016-09-24T05:38:17.754Z,1444
2016-09-24T05:39:17.977Z,1500
2016-09-24T05:40:18.574Z,1520
2016-09-24T05:41:17.262Z,1572
2016-09-24T05:42:20.516Z,1668
2016-09-24T05:43:18.266Z,1804
2016-09-24T05:44:19.232Z,1860
2016-09-24T05:45:19.446Z,1944
2016-09-24T05:46:18.047Z,2000
2016-09-24T05:47:17.501Z,2052
2016-09-24T05:48:18.627Z,2100
2016-09-24T05:49:17.868Z,2220
2016-09-24T05:50:19.107Z,2372
2016-09-24T05:51:18.170Z,2408
2016-09-24T05:52:17.999Z,2428
2016-09-24T05:53:18.594Z,2464
2016-09-24T05:54:18.327Z,2544
2016-09-24T05:55:18.795Z,2652
2016-09-24T05:56:17.974Z,2848
2016-09-24T05:57:19.182Z,2932
2016-09-24T05:58:18.792Z,2996
2016-09-24T05:59:19.621Z,2968
2016-09-24T06:00:17.998Z,2924
2016-09-24T06:01:18.854Z,3036
2016-09-24T06:02:17.889Z,3088
2016-09-24T06:03:17.858Z,3192
2016-09-24T06:04:18.533Z,3236
2016-09-24T06:05:21.315Z,3344
2016-09-24T06:06:18.272Z,3512
2016-09-24T06:07:18.932Z,3596
2016-09-24T06:08:18.073Z,3620
2016-09-24T06:09:18.443Z,3476
2016-09-24T06:10:18.175Z,3596
2016-09-24T06:11:18.241Z,3524
2016-09-24T06:12:19.136Z,3596
2016-09-24T06:13:19.114Z,3740
2016-09-24T06:14:18.732Z,4024
2016-09-24T06:15:18.973Z,4300
2016-09-24T06:16:18.996Z,4476
2016-09-24T06:17:18.581Z,4564
2016-09-24T06:18:18.856Z,5072
2016-09-24T06:19:18.959Z,5072
2016-09-24T06:20:18.292Z,5264
2016-09-24T06:21:20.109Z,5608
2016-09-24T06:22:19.077Z,5396
2016-09-24T06:23:19.686Z,5292
2016-09-24T06:24:18.592Z,5244
2016-09-24T06:25:18.961Z,5516
2016-09-24T06:26:19.401Z,5468
2016-09-24T06:27:18.941Z,5364
2016-09-24T06:28:18.450Z,5248
2016-09-24T06:29:19.578Z,5156
2016-09-24T06:30:19.461Z,5576
2016-09-24T06:31:19.918Z,5812
2016-09-24T06:32:19.930Z,6460
2016-09-24T06:33:19.425Z,6648
2016-09-24T06:34:19.583Z,6836
2016-09-24T06:35:19.912Z,7160
2016-09-24T06:36:18.340Z,7096
2016-09-24T06:37:19.678Z,6756
2016-09-24T06:38:19.061Z,7228
2016-09-24T06:39:19.883Z,7852
2016-09-24T06:40:19.882Z,8408
2016-09-24T06:41:19.504Z,7952
2016-09-24T06:42:19.284Z,8548
2016-09-24T06:43:19.488Z,8768
2016-09-24T06:44:21.595Z,8720
2016-09-24T06:45:19.808Z,7984
2016-09-24T06:46:19.417Z,8144
2016-09-24T06:47:20.423Z,8136
2016-09-24T06:48:19.684Z,8432
2016-09-24T06:49:19.644Z,9492
2016-09-24T06:50:19.374Z,8376
2016-09-24T06:51:20.031Z,8096
2016-09-24T06:52:20.741Z,8428
2016-09-24T06:53:19.103Z,8768
2016-09-24T06:54:20.117Z,9252
2016-09-24T06:55:20.556Z,9784
2016-09-24T06:56:20.801Z,9428
2016-09-24T06:57:19.350Z,10092
2016-09-24T06:58:20.592Z,10020
2016-09-24T06:59:19.614Z,11364
2016-09-24T07:00:19.928Z,10448
2016-09-24T07:01:19.814Z,10348
2016-09-24T07:02:19.651Z,10044
2016-09-24T07:03:19.701Z,10788
2016-09-24T07:04:19.772Z,11536
2016-09-24T07:05:20.171Z,11580
2016-09-24T07:06:20.239Z,10684
2016-09-24T07:07:20.622Z,11788
2016-09-24T07:08:20.041Z,11792
2016-09-24T07:09:20.902Z,11276
2016-09-24T07:10:20.941Z,12024
2016-09-24T07:11:19.868Z,11804
2016-09-24T07:12:20.897Z,11496
2016-09-24T07:13:19.543Z,10592
2016-09-24T07:14:20.398Z,10000
2016-09-24T07:15:20.270Z,9872
2016-09-24T07:16:20.795Z,9460
2016-09-24T07:17:21.650Z,9648
2016-09-24T07:18:22.156Z,10796
2016-09-24T07:19:20.368Z,10292
2016-09-24T07:20:22.067Z,11140
2016-09-24T07:21:20.991Z,11044
2016-09-24T07:22:21.583Z,11144
2016-09-24T07:23:21.347Z,11044
2016-09-24T07:24:20.169Z,11936
2016-09-24T07:25:21.088Z,11820
2016-09-24T07:26:20.696Z,11364
2016-09-24T07:27:20.223Z,13728
2016-09-24T07:28:20.631Z,14296
2016-09-24T07:29:19.980Z,15112
2016-09-24T07:30:20.366Z,13932
2016-09-24T07:31:19.992Z,13776
2016-09-24T07:32:21.045Z,17504
2016-09-24T07:33:19.992Z,16016
2016-09-24T07:34:22.311Z,17312
2016-09-24T07:35:20.492Z,16864
2016-09-24T07:36:20.314Z,15308
2016-09-24T07:37:19.808Z,15080
2016-09-24T07:38:20.431Z,14432
2016-09-24T07:39:23.031Z,16800
2016-09-24T07:40:20.727Z,14780
2016-09-24T07:41:20.424Z,16960
2016-09-24T07:42:19.964Z,19136
2016-09-24T07:43:20.130Z,19808
2016-09-24T07:44:21.657Z,15928
2016-09-24T07:45:20.207Z,20064
2016-09-24T07:46:20.739Z,20736
2016-09-24T07:47:21.127Z,19904
2016-09-24T07:48:21.618Z,19648
2016-09-24T07:49:20.541Z,20064
2016-09-24T07:50:20.255Z,19520
2016-09-24T07:51:21.335Z,20384
2016-09-24T07:52:21.749Z,19776
2016-09-24T07:53:22.293Z,20128
2016-09-24T07:54:20.500Z,19168
2016-09-24T07:55:21.076Z,21248
2016-09-24T07:56:22.723Z,20384
2016-09-24T07:57:21.643Z,21024
2016-09-24T07:58:19.992Z,20832
2016-09-24T07:59:21.778Z,22048
2016-09-24T08:00:21.624Z,21760
2016-09-24T08:01:21.672Z,19776
2016-09-24T08:02:20.674Z,20704
2016-09-24T08:03:20.528Z,21568
2016-09-24T08:04:22.255Z,20320
2016-09-24T08:05:21.381Z,18464
2016-09-24T08:06:21.305Z,16464
2016-09-24T08:07:22.170Z,18560
2016-09-24T08:08:21.531Z,22304
2016-09-24T08:09:20.907Z,22752
2016-09-24T08:10:21.445Z,21440
2016-09-24T08:11:21.174Z,20928
2016-09-24T08:12:20.642Z,20224
2016-09-24T08:13:21.471Z,19680
2016-09-24T08:14:22.174Z,19424
2016-09-24T08:15:22.307Z,19360
2016-09-24T08:16:21.274Z,19552
2016-09-24T08:17:21.005Z,19168
2016-09-24T08:18:20.822Z,18848
2016-09-24T08:19:21.053Z,19040
2016-09-24T08:20:22.202Z,19008
2016-09-24T08:21:20.870Z,18720
2016-09-24T08:22:22.561Z,18752
2016-09-24T08:23:22.413Z,18752
2016-09-24T08:24:21.288Z,18976
2016-09-24T08:25:22.259Z,18944
2016-09-24T08:26:22.322Z,18880
2016-09-24T08:27:21.874Z,18816
2016-09-24T08:28:21.120Z,18464
2016-09-24T08:29:21.481Z,18560
2016-09-24T08:30:22.183Z,18400
2016-09-24T08:31:21.709Z,18336
2016-09-24T08:32:21.027Z,18016
2016-09-24T08:33:22.256Z,17628
2016-09-24T08:34:23.108Z,17700
2016-09-24T08:35:21.666Z,18048
2016-09-24T08:36:22.117Z,18144
2016-09-24T08:37:21.603Z,18272
2016-09-24T08:38:22.305Z,18400
2016-09-24T08:39:22.612Z,18464
2016-09-24T08:40:23.194Z,18464
2016-09-24T08:41:21.221Z,18464
2016-09-24T08:42:22.036Z,18496
2016-09-24T08:43:22.053Z,18432
2016-09-24T08:44:22.888Z,18272
2016-09-24T08:45:23.273Z,17876
2016-09-24T08:46:22.420Z,17652
2016-09-24T08:47:21.681Z,17156
2016-09-24T08:48:22.655Z,17536
2016-09-24T08:49:22.424Z,17984
2016-09-24T08:50:22.851Z,18336
2016-09-24T08:51:22.263Z,18304
2016-09-24T08:52:22.890Z,18336
2016-09-24T08:53:21.518Z,18336
2016-09-24T08:54:22.174Z,18176
2016-09-24T08:55:22.849Z,17788
2016-09-24T08:56:24.305Z,17960
2016-09-24T08:57:22.229Z,17796
2016-09-24T08:58:23.102Z,17784
2016-09-24T08:59:23.024Z,18464
2016-09-24T09:00:21.834Z,18496
2016-09-24T09:01:22.641Z,18400
2016-09-24T09:02:22.914Z,18336
2016-09-24T09:03:22.414Z,18208
2016-09-24T09:04:21.606Z,17800
2016-09-24T09:05:21.984Z,17420
2016-09-24T09:06:21.935Z,17684
2016-09-24T09:07:22.220Z,17680
2016-09-24T09:08:21.677Z,18016
2016-09-24T09:09:22.878Z,17948
2016-09-24T09:10:22.320Z,18272
2016-09-24T09:11:22.045Z,17996
2016-09-24T09:12:23.318Z,17932
2016-09-24T09:13:23.694Z,17864
2016-09-24T09:14:22.475Z,17868
2016-09-24T09:15:23.309Z,17824
2016-09-24T09:16:22.608Z,17912
2016-09-24T09:17:23.816Z,17852
2016-09-24T09:18:22.693Z,17888
2016-09-24T09:19:22.770Z,18208
2016-09-24T09:20:23.603Z,18336
2016-09-24T09:21:22.569Z,18304
2016-09-24T09:22:21.902Z,17932
2016-09-24T09:23:24.229Z,17460
2016-09-24T09:24:22.815Z,17760
2016-09-24T09:25:23.550Z,18592
2016-09-24T09:26:22.601Z,18560
2016-09-24T09:27:22.484Z,18496
2016-09-24T09:28:23.497Z,18368
2016-09-24T09:29:22.933Z,18272
2016-09-24T09:30:22.924Z,18272
2016-09-24T09:31:23.109Z,18368
2016-09-24T09:32:23.886Z,18304
2016-09-24T09:33:23.515Z,18336
2016-09-24T09:34:22.848Z,18400
2016-09-24T09:35:23.884Z,18304
2016-09-24T09:36:22.605Z,18400
2016-09-24T09:37:23.246Z,18528
2016-09-24T09:38:23.393Z,18560
2016-09-24T09:39:22.527Z,18528
2016-09-24T09:40:23.348Z,18528
2016-09-24T09:41:22.896Z,18528
2016-09-24T09:42:23.531Z,18560
2016-09-24T09:43:23.526Z,18528
2016-09-24T09:44:22.358Z,18336
2016-09-24T09:45:24.125Z,18144
2016-09-24T09:46:25.503Z,17916
2016-09-24T09:47:22.838Z,17704
2016-09-24T09:48:23.281Z,17740
2016-09-24T09:49:23.496Z,17608
2016-09-24T09:50:23.648Z,17596
2016-09-24T09:51:24.059Z,17636
2016-09-24T09:52:22.826Z,17576
2016-09-24T09:53:23.237Z,17580
2016-09-24T09:54:25.510Z,17568
2016-09-24T09:55:23.440Z,17496
2016-09-24T09:56:23.225Z,17308
2016-09-24T09:57:23.173Z,17224
2016-09-24T09:58:23.330Z,17364
2016-09-24T09:59:23.649Z,17360
2016-09-24T10:00:24.096Z,17268
2016-09-24T10:01:24.104Z,17192
2016-09-24T10:02:23.505Z,17136
2016-09-24T10:03:23.478Z,17112
2016-09-24T10:04:23.871Z,16936
2016-09-24T10:05:24.277Z,16868
2016-09-24T10:06:25.685Z,16900
2016-09-24T10:07:24.055Z,16880
2016-09-24T10:08:24.295Z,16888
2016-09-24T10:09:23.216Z,16912
2016-09-24T10:10:24.451Z,16772
2016-09-24T10:11:22.988Z,16732
2016-09-24T10:12:24.044Z,16672
2016-09-24T10:13:25.056Z,16632
2016-09-24T10:14:24.685Z,16492
2016-09-24T10:15:24.592Z,16300
2016-09-24T10:16:24.120Z,15828
2016-09-24T10:17:24.550Z,15072
2016-09-24T10:18:24.947Z,16388
2016-09-24T10:19:23.525Z,16432
2016-09-24T10:20:24.348Z,16272
2016-09-24T10:21:24.756Z,16080
2016-09-24T10:22:24.547Z,16076
2016-09-24T10:23:25.736Z,15972
2016-09-24T10:24:25.343Z,15892
2016-09-24T10:25:24.528Z,15836
2016-09-24T10:26:24.791Z,15776
2016-09-24T10:27:24.687Z,15844
2016-09-24T10:28:25.103Z,15780
2016-09-24T10:29:25.196Z,15788
2016-09-24T10:30:24.269Z,15608
2016-09-24T10:31:24.266Z,14744
2016-09-24T10:32:24.409Z,14544
2016-09-24T10:33:24.239Z,14208
2016-09-24T10:34:25.270Z,14512
2016-09-24T10:35:24.681Z,15260
2016-09-24T10:36:25.139Z,15616
2016-09-24T10:37:25.171Z,15972
2016-09-24T10:38:24.183Z,15840
2016-09-24T10:39:24.123Z,15892
2016-09-24T10:40:24.546Z,15956
2016-09-24T10:41:24.725Z,15900
2016-09-24T10:42:25.131Z,15836
2016-09-24T10:43:24.640Z,15724
2016-09-24T10:44:25.437Z,15940
2016-09-24T10:45:24.537Z,15996
2016-09-24T10:46:25.945Z,15828
2016-09-24T10:47:25.138Z,15580
2016-09-24T10:48:25.062Z,15668
2016-09-24T10:49:25.581Z,16076
2016-09-24T10:50:24.862Z,16016
2016-09-24T10:51:25.058Z,15956
2016-09-24T10:52:24.840Z,15552
2016-09-24T10:53:25.666Z,15684
2016-09-24T10:54:25.389Z,15644
2016-09-24T10:55:25.227Z,14716
2016-09-24T10:56:24.554Z,15508
2016-09-24T10:57:25.940Z,15776
2016-09-24T10:58:24.789Z,15936
2016-09-24T10:59:25.695Z,16088
2016-09-24T11:00:26.499Z,16304
2016-09-24T11:01:24.759Z,16156
2016-09-24T11:02:25.229Z,16212
2016-09-24T11:03:24.703Z,16196
2016-09-24T11:04:25.012Z,16448
2016-09-24T11:05:25.922Z,16160
2016-09-24T11:06:25.990Z,16720
2016-09-24T11:07:25.290Z,16916
2016-09-24T11:08:25.485Z,16736
2016-09-24T11:09:24.915Z,16376
2016-09-24T11:10:25.731Z,16828
2016-09-24T11:11:25.363Z,16784
2016-09-24T11:12:26.862Z,16956
2016-09-24T11:13:24.940Z,16768
2016-09-24T11:14:25.561Z,16396
2016-09-24T11:15:25.599Z,16572
2016-09-24T11:16:25.459Z,16804
2016-09-24T11:17:25.009Z,16952
2016-09-24T11:18:25.215Z,16904
2016-09-24T11:19:25.713Z,16664
2016-09-24T11:20:26.048Z,16736
2016-09-24T11:21:25.788Z,16660
2016-09-24T11:22:25.475Z,17228
2016-09-24T11:23:26.282Z,17520
2016-09-24T11:24:24.953Z,17824
2016-09-24T11:25:26.655Z,18112
2016-09-24T11:26:26.850Z,18208
2016-09-24T11:27:26.305Z,18016
2016-09-24T11:28:27.243Z,17456
2016-09-24T11:29:27.071Z,17200
2016-09-24T11:30:25.628Z,16656
2016-09-24T11:31:27.210Z,11284
2016-09-24T11:32:26.438Z,11464
2016-09-24T11:33:26.140Z,11436
2016-09-24T11:34:27.222Z,13716
2016-09-24T11:35:26.565Z,17632
2016-09-24T11:36:28.326Z,18496
2016-09-24T11:37:26.537Z,16184
2016-09-24T11:38:27.202Z,13968
2016-09-24T11:39:27.133Z,13480
2016-09-24T11:40:26.589Z,13696
2016-09-24T11:41:27.760Z,17504
2016-09-24T11:42:27.429Z,17248
2016-09-24T11:43:26.475Z,19584
2016-09-24T11:44:26.896Z,16184
2016-09-24T11:45:27.069Z,15972
2016-09-24T11:46:27.018Z,16716
2016-09-24T11:47:27.595Z,17472
2016-09-24T11:48:26.367Z,22016
2016-09-24T11:49:27.225Z,18304
2016-09-24T11:50:26.026Z,18720
2016-09-24T11:51:27.475Z,22848
2016-09-24T11:52:26.509Z,25344
2016-09-24T11:53:26.329Z,25920
2016-09-24T11:54:26.960Z,23520
2016-09-24T11:55:26.128Z,23744
2016-09-24T11:56:26.109Z,24640
2016-09-24T11:57:26.825Z,27744
2016-09-24T11:58:28.364Z,27776
2016-09-24T11:59:26.593Z,27072
2016-09-24T12:00:26.089Z,25760
2016-09-24T12:01:27.471Z,21600
2016-09-24T12:02:28.049Z,20128
2016-09-24T12:03:27.026Z,20032
2016-09-24T12:04:26.724Z,21920
2016-09-24T12:05:27.489Z,23136
2016-09-24T12:06:28.352Z,22688
2016-09-24T12:07:27.310Z,19840
2016-09-24T12:08:27.575Z,20256
2016-09-24T12:09:27.473Z,21760
2016-09-24T12:10:28.018Z,18272
2016-09-24T12:11:28.498Z,16844
2016-09-24T12:12:28.101Z,18112
2016-09-24T12:13:28.188Z,18784
2016-09-24T12:14:28.332Z,18784
2016-09-24T12:15:27.677Z,18496
2016-09-24T12:16:27.885Z,18112
2016-09-24T12:17:28.437Z,17664
2016-09-24T12:18:27.692Z,17536
2016-09-24T12:19:27.445Z,17344
2016-09-24T12:20:27.978Z,19072
2016-09-24T12:21:29.037Z,18688
2016-09-24T12:22:27.706Z,15440
2016-09-24T12:23:28.695Z,14816
2016-09-24T12:24:27.644Z,15136
2016-09-24T12:25:27.498Z,18880
2016-09-24T12:26:28.475Z,18496
2016-09-24T12:27:28.032Z,22016
2016-09-24T12:28:27.668Z,21440
2016-09-24T12:29:28.524Z,22016
2016-09-24T12:30:28.444Z,21760
2016-09-24T12:31:27.561Z,21216
2016-09-24T12:32:27.735Z,21152
2016-09-24T12:33:29.589Z,17792
2016-09-24T12:34:29.153Z,18528
2016-09-24T12:35:28.215Z,17272
2016-09-24T12:36:28.556Z,16944
2016-09-24T12:37:27.304Z,20000
2016-09-24T12:38:27.970Z,20032
2016-09-24T12:39:28.236Z,19200
2016-09-24T12:40:28.854Z,18816
2016-09-24T12:41:27.881Z,18112
2016-09-24T12:42:28.716Z,18336
2016-09-24T12:43:28.535Z,17568
2016-09-24T12:44:28.091Z,18336
2016-09-24T12:45:28.519Z,19936
2016-09-24T12:46:28.881Z,20928
2016-09-24T12:47:28.206Z,21248
2016-09-24T12:48:29.554Z,21600
2016-09-24T12:49:29.186Z,21536
2016-09-24T12:50:29.539Z,18784
2016-09-24T12:51:29.798Z,19264
2016-09-24T12:52:28.003Z,20736
2016-09-24T12:53:29.376Z,17344
2016-09-24T12:54:28.980Z,19872
2016-09-24T12:55:29.559Z,19808
2016-09-24T12:56:29.657Z,17504
2016-09-24T12:57:28.820Z,19840
2016-09-24T12:58:28.538Z,17568
2016-09-24T12:59:28.733Z,18048
2016-09-24T13:00:28.507Z,16732
2016-09-24T13:01:29.047Z,16400
2016-09-24T13:02:28.990Z,15252
2016-09-24T13:03:29.499Z,15632
2016-09-24T13:04:29.927Z,15380
2016-09-24T13:05:28.423Z,15316
2016-09-24T13:06:30.008Z,15444
2016-09-24T13:07:29.645Z,15400
2016-09-24T13:08:29.003Z,15576
2016-09-24T13:09:28.862Z,15752
2016-09-24T13:10:30.148Z,15260
2016-09-24T13:11:29.614Z,16156
2016-09-24T13:12:29.640Z,16104
2016-09-24T13:13:28.666Z,15876
2016-09-24T13:14:30.177Z,15876
2016-09-24T13:15:29.732Z,15828
2016-09-24T13:16:29.705Z,15644
2016-09-24T13:17:30.146Z,14556
2016-09-24T13:18:30.219Z,15848
2016-09-24T13:19:30.013Z,15972
2016-09-24T13:20:29.101Z,15816
2016-09-24T13:21:29.598Z,16296
2016-09-24T13:22:29.458Z,16804
2016-09-24T13:23:30.197Z,13256
2016-09-24T13:24:30.714Z,13364
2016-09-24T13:25:29.523Z,13476
2016-09-24T13:26:30.026Z,16036
2016-09-24T13:27:29.153Z,16832
2016-09-24T13:28:30.266Z,17664
2016-09-24T13:29:30.548Z,17888
2016-09-24T13:30:30.296Z,17312
2016-09-24T13:31:30.438Z,14660
2016-09-24T13:32:29.446Z,15168
2016-09-24T13:33:30.501Z,14464
2016-09-24T13:34:30.085Z,14068
2016-09-24T13:35:30.272Z,14516
2016-09-24T13:36:29.846Z,14616